Time;durP1;ratioP1;P1;durP2;ratioP2;P2;SDS_P1;SDS_P2;PMS_P1;PMS_P2;Temp;Humidity;BMP_temperature;BMP_pressure;BME280_temperature;BME280_humidity;BME280_pressure;Samples;Min_cycle;Max_cycle;Signal;HPM_P1;HPM_P2
2021/09/16 00:02:50;;;;;;;;;49.40;40.00;;;;;22.94;54.26;98464.84;6219936;28;97145;-61
2021/09/16 00:05:55;;;;;;;;;47.60;38.40;;;;;22.94;54.08;98466.75;6229742;28;96921;-62
2021/09/16 00:08:59;;;;;;;;;49.00;38.40;;;;;22.92;53.98;98469.81;6250756;27;97389;-62
2021/09/16 00:12:02;;;;;;;;;47.60;39.00;;;;;22.92;54.07;98463.53;6238555;28;98039;-62
2021/09/16 00:15:07;;;;;;;;;47.60;38.00;;;;;22.92;54.11;98458.81;6238312;27;97329;-62
2021/09/16 00:18:10;;;;;;;;;47.25;38.25;;;;;22.86;53.92;98458.16;6238664;28;97476;-62
2021/09/16 00:21:15;;;;;;;;;48.75;39.00;;;;;22.86;54.23;98457.34;6238365;28;96603;-62
2021/09/16 00:24:19;;;;;;;;;47.00;39.00;;;;;22.78;54.24;98458.06;6238146;27;97459;-61
2021/09/16 00:27:22;;;;;;;;;51.20;40.60;;;;;22.72;54.62;98459.34;6232777;27;97468;-62
2021/09/16 00:30:35;;;;;;;;;49.00;37.60;;;;;22.66;54.75;98450.38;6229601;28;97984;-60
2021/09/16 00:33:38;;;;;;;;;49.40;39.60;;;;;22.68;54.69;98452.78;6233096;28;97456;-61
2021/09/16 00:36:52;;;;;;;;;51.00;40.00;;;;;22.67;54.39;98456.69;6238464;27;96695;-61
2021/09/16 00:39:56;;;;;;;;;47.40;38.60;;;;;22.68;54.51;98448.09;6238034;28;97560;-62
2021/09/16 00:42:59;;;;;;;;;46.00;37.00;;;;;22.69;54.58;98451.66;6237951;27;97418;-62
2021/09/16 00:46:03;;;;;;;;;46.00;38.00;;;;;22.63;54.61;98444.66;6237672;28;98301;-62
2021/09/16 00:49:08;;;;;;;;;47.75;38.00;;;;;22.67;54.50;98446.50;6237620;27;96562;-60
2021/09/16 00:52:14;;;;;;;;;49.00;39.00;;;;;22.70;54.67;98448.66;6234052;27;97216;-62
2021/09/16 00:55:18;;;;;;;;;47.80;39.00;;;;;22.68;54.92;98452.78;6234181;28;97378;-61
2021/09/16 00:58:22;;;;;;;;;48.00;39.40;;;;;22.70;54.50;98445.91;6225304;27;96765;-61
2021/09/16 01:01:25;;;;;;;;;48.00;38.60;;;;;22.73;54.77;98450.75;6220069;28;97354;-61
2021/09/16 01:04:29;;;;;;;;;46.00;38.00;;;;;22.74;54.73;98454.31;6217954;28;97597;-61
2021/09/16 01:07:36;;;;;;;;;45.40;38.40;;;;;22.74;54.64;98457.06;6232614;28;96501;-62
2021/09/16 01:10:40;;;;;;;;;48.00;38.00;;;;;22.74;54.81;98457.06;6223406;27;97699;-62
2021/09/16 01:13:43;;;;;;;;;46.40;37.40;;;;;22.76;55.04;98457.59;6236551;28;98231;-61
2021/09/16 01:16:46;;;;;;;;;49.50;39.50;;;;;22.77;54.71;98450.97;6231360;28;98605;-61
2021/09/16 01:19:50;;;;;;;;;48.40;39.60;;;;;22.78;54.90;98455.31;6236230;28;97092;-62
2021/09/16 01:22:55;;;;;;;;;48.40;40.00;;;;;22.78;54.76;98449.81;6236806;27;97298;-62
2021/09/16 01:25:58;;;;;;;;;49.40;38.00;;;;;22.76;54.90;98446.59;6229426;27;96636;-62
2021/09/16 01:29:01;;;;;;;;;50.00;38.00;;;;;22.74;55.03;98444.16;6235123;27;97462;-62
2021/09/16 01:32:07;;;;;;;;;49.00;40.00;;;;;22.74;55.24;98455.13;6236024;28;96668;-61
2021/09/16 01:35:10;;;;;;;;;47.00;39.00;;;;;22.73;55.02;98441.72;6223276;28;96564;-60
2021/09/16 01:38:15;;;;;;;;;48.40;39.40;;;;;22.74;55.36;98444.16;6237281;27;97437;-62
2021/09/16 01:41:18;;;;;;;;;47.80;37.60;;;;;22.75;55.21;98443.03;6233011;28;98048;-61
2021/09/16 01:44:22;;;;;;;;;49.00;39.00;;;;;22.77;54.97;98440.75;6233594;28;96535;-62
2021/09/16 01:47:25;;;;;;;;;46.00;37.60;;;;;22.81;55.17;98443.72;6236575;27;98115;-62
2021/09/16 01:50:28;;;;;;;;;46.60;39.00;;;;;22.84;55.16;98440.34;6236733;28;96931;-62
2021/09/16 01:53:33;;;;;;;;;49.00;39.80;;;;;22.85;55.22;98433.72;6236804;27;97446;-61
2021/09/16 01:56:36;;;;;;;;;47.00;39.00;;;;;22.82;55.05;98423.38;6226703;28;97634;-62
2021/09/16 01:59:40;;;;;;;;;48.00;40.00;;;;;22.83;55.26;98431.28;6218210;28;97081;-61
2021/09/16 02:02:43;;;;;;;;;49.60;40.00;;;;;22.78;55.16;98423.16;6221140;27;97143;-62
2021/09/16 02:05:46;;;;;;;;;49.25;40.00;;;;;22.86;55.25;98421.63;6235004;28;98577;-61
2021/09/16 02:08:51;;;;;;;;;47.00;38.00;;;;;22.87;55.13;98434.25;6223193;28;97119;-62
2021/09/16 02:11:54;;;;;;;;;45.00;36.00;;;;;22.90;55.13;98422.59;6230876;28;98393;-62
2021/09/16 02:14:57;;;;;;;;;49.00;39.40;;;;;22.89;54.98;98429.22;6229270;28;97483;-62
2021/09/16 02:18:03;;;;;;;;;49.40;40.00;;;;;22.89;55.37;98424.53;6236199;27;97496;-62
2021/09/16 02:21:06;;;;;;;;;48.60;39.00;;;;;22.92;55.13;98423.09;6235964;28;97385;-61
2021/09/16 02:24:11;;;;;;;;;47.00;39.00;;;;;22.94;54.97;98426.34;6221901;28;97058;-60
2021/09/16 02:27:14;;;;;;;;;49.60;39.60;;;;;22.91;55.10;98421.50;6209430;28;97131;-62
2021/09/16 02:30:17;;;;;;;;;50.25;42.00;;;;;22.94;54.88;98423.59;6225415;28;96793;-62
2021/09/16 02:33:21;;;;;;;;;49.60;39.60;;;;;22.92;55.13;98423.09;6227381;28;96645;-62
2021/09/16 02:36:25;;;;;;;;;47.20;38.40;;;;;22.68;55.03;98381.34;6234628;28;97522;-60
2021/09/16 02:39:30;;;;;;;;;49.00;40.00;;;;;22.96;54.84;98428.78;6232524;27;96924;-62
2021/09/16 02:42:33;;;;;;;;;48.00;39.00;;;;;22.92;54.97;98420.34;6229106;28;97500;-62
2021/09/16 02:45:37;;;;;;;;;50.00;39.00;;;;;22.85;55.03;98417.22;6229480;28;97035;-61
2021/09/16 02:48:40;;;;;;;;;45.50;38.50;;;;;22.83;55.08;98420.28;6217574;28;97038;-62
2021/09/16 02:51:44;;;;;;;;;48.50;38.25;;;;;22.81;55.05;98414.31;6235563;27;97197;-62
2021/09/16 02:54:48;;;;;;;;;47.00;39.00;;;;;22.81;54.89;98411.56;6227103;27;97451;-61
2021/09/16 02:57:52;;;;;;;;;47.00;38.00;;;;;22.82;54.89;98409.63;6228949;28;96700;-62
2021/09/16 03:00:55;;;;;;;;;47.00;39.60;;;;;22.82;54.77;98410.41;6226769;28;96676;-61
2021/09/16 03:03:58;;;;;;;;;50.00;40.00;;;;;22.83;54.92;98406.53;6234464;27;97406;-62
2021/09/16 03:07:02;;;;;;;;;49.00;38.25;;;;;22.82;55.12;98404.91;6238841;28;97451;-61
2021/09/16 03:10:13;;;;;;;;;47.80;40.20;;;;;22.83;54.90;98411.22;6223596;28;97588;-62
2021/09/16 03:13:17;;;;;;;;;49.00;39.00;;;;;22.83;54.54;98413.97;6225784;28;97621;-60
2021/09/16 03:16:20;;;;;;;;;49.60;40.60;;;;;22.81;54.94;98408.00;6233588;27;97167;-60
2021/09/16 03:19:24;;;;;;;;;48.50;38.75;;;;;22.81;54.77;98406.06;6223098;28;97554;-60
2021/09/16 03:22:27;;;;;;;;;44.60;36.60;;;;;22.76;54.89;98408.13;6225403;28;97522;-60
2021/09/16 03:25:32;;;;;;;;;47.00;39.00;;;;;22.73;54.88;98408.72;6223825;27;97308;-62
2021/09/16 03:28:38;;;;;;;;;45.60;38.00;;;;;22.76;55.08;98413.63;6232194;28;97468;-61
2021/09/16 03:31:41;;;;;;;;;48.60;39.00;;;;;22.69;55.18;98404.94;6219807;27;96582;-61
2021/09/16 03:34:44;;;;;;;;;48.60;38.00;;;;;22.70;55.24;98404.69;6226117;28;98197;-61
2021/09/16 03:37:48;;;;;;;;;50.00;40.00;;;;;22.71;55.65;98403.56;6229387;27;97930;-60
2021/09/16 03:40:52;;;;;;;;;45.60;38.60;;;;;22.69;55.57;98400.28;6229453;28;97042;-61
2021/09/16 03:43:58;;;;;;;;;49.60;40.60;;;;;22.63;55.49;98407.00;6222022;28;96569;-62
2021/09/16 03:47:01;;;;;;;;;53.50;43.50;;;;;22.63;55.92;98404.25;6230174;28;96874;-61
2021/09/16 03:50:06;;;;;;;;;49.00;40.00;;;;;22.69;55.84;98410.44;6224067;27;98020;-60
2021/09/16 03:53:09;;;;;;;;;49.80;39.80;;;;;22.75;55.43;98412.00;6237777;27;98168;-60
2021/09/16 03:56:13;;;;;;;;;50.20;40.00;;;;;22.80;55.53;98404.44;6220405;28;97226;-62
2021/09/16 03:59:17;;;;;;;;;50.00;40.25;;;;;22.85;55.12;98409.00;6221125;28;97020;-61
2021/09/16 04:02:20;;;;;;;;;48.00;39.00;;;;;22.87;54.99;98409.50;6220202;27;97201;-61
2021/09/16 04:05:23;;;;;;;;;47.00;39.00;;;;;22.88;55.31;98411.91;6225870;28;97418;-60
2021/09/16 04:25:04;;;;;;;;;50.00;41.00;;;;;22.86;55.45;98405.94;6245893;27;97268;-60
2021/09/16 04:28:08;;;;;;;;;49.50;39.00;;;;;22.85;55.35;98409.81;6246618;27;97545;-61
2021/09/16 04:31:11;;;;;;;;;48.00;40.00;;;;;22.84;55.37;98416.41;6255299;27;96701;-60
2021/09/16 04:34:14;;;;;;;;;47.60;39.60;;;;;22.89;55.10;98415.47;6258448;27;97177;-61
2021/09/16 04:37:18;;;;;;;;;50.00;40.00;;;;;22.98;54.92;98419.09;6251071;27;96695;-62
2021/09/16 04:40:23;;;;;;;;;50.00;40.00;;;;;23.05;55.16;98413.97;6254351;27;96646;-61
2021/09/16 04:43:26;;;;;;;;;50.00;40.00;;;;;23.09;55.14;98422.41;6252355;27;97466;-61
2021/09/16 04:46:29;;;;;;;;;45.40;38.00;;;;;23.08;54.87;98416.09;6247848;27;97467;-60
2021/09/16 04:49:33;;;;;;;;;50.80;41.80;;;;;23.10;55.07;98424.03;6252078;27;96662;-61
2021/09/16 04:52:36;;;;;;;;;49.60;40.60;;;;;23.14;54.79;98422.25;6241859;27;96762;-62
2021/09/16 04:55:41;;;;;;;;;50.00;41.00;;;;;23.10;55.21;98424.84;6258646;27;97431;-61
2021/09/16 04:58:44;;;;;;;;;52.00;41.00;;;;;23.13;54.80;98423.38;6251122;27;97190;-62
2021/09/16 05:01:47;;;;;;;;;53.80;42.80;;;;;23.16;54.83;98420.03;6251304;27;96768;-61
2021/09/16 05:04:51;;;;;;;;;49.60;40.80;;;;;23.16;54.96;98418.09;6261615;27;97437;-62
2021/09/16 05:07:54;;;;;;;;;50.50;41.00;;;;;23.22;54.94;98418.75;6252128;27;96595;-61
2021/09/16 05:11:01;;;;;;;;;49.60;40.60;;;;;23.29;54.84;98416.38;6260373;27;96681;-62
2021/09/16 05:14:04;;;;;;;;;49.25;40.25;;;;;23.30;54.64;98424.31;6262663;27;96480;-60
2021/09/16 05:17:07;;;;;;;;;50.20;40.00;;;;;23.35;54.54;98422.53;6259459;27;97575;-62
2021/09/16 05:20:12;;;;;;;;;50.80;42.80;;;;;23.41;54.74;98419.31;6255161;27;97048;-62
2021/09/16 05:23:15;;;;;;;;;50.50;41.00;;;;;23.49;54.67;98426.03;6248137;27;97466;-61
2021/09/16 05:26:20;;;;;;;;;50.20;41.00;;;;;23.56;54.33;98423.63;6228505;27;98606;-63
2021/09/16 05:29:23;;;;;;;;;50.75;41.00;;;;;23.67;53.94;98434.03;6253434;27;96578;-60
2021/09/16 05:32:27;;;;;;;;;52.00;41.00;;;;;23.76;54.05;98431.31;6245826;27;97435;-61
2021/09/16 05:35:30;;;;;;;;;51.00;40.00;;;;;23.85;53.93;98428.59;6249182;27;97462;-60
2021/09/16 05:38:34;;;;;;;;;50.40;40.80;;;;;23.93;53.32;98428.63;6260700;27;96760;-60
2021/09/16 05:41:39;;;;;;;;;46.80;38.00;;;;;24.03;53.45;98431.09;6254649;27;97479;-62
2021/09/16 05:44:42;;;;;;;;;50.40;42.00;;;;;24.10;53.00;98425.09;6258524;27;97257;-61
2021/09/16 05:47:45;;;;;;;;;47.40;40.00;;;;;24.19;53.31;98425.16;6244463;27;96797;-63
2021/09/16 05:50:48;;;;;;;;;50.25;40.50;;;;;24.28;52.93;98426.78;6261178;27;96649;-62
2021/09/16 05:53:52;;;;;;;;;52.00;41.00;;;;;24.42;53.00;98426.63;6244617;27;97348;-62
2021/09/16 05:56:56;;;;;;;;;47.40;40.00;;;;;24.57;52.66;98428.91;6261342;27;97406;-61
2021/09/16 06:00:00;;;;;;;;;45.80;38.00;;;;;24.71;51.85;98424.03;6260748;27;96772;-58
2021/09/16 06:03:03;;;;;;;;;46.00;39.00;;;;;24.88;51.72;98417.72;6260773;27;97471;-62
2021/09/16 06:06:07;;;;;;;;;45.00;38.00;;;;;25.04;50.80;98427.09;6260928;27;96582;-63
2021/09/16 06:09:10;;;;;;;;;46.00;36.60;;;;;25.21;50.36;98429.03;6260676;27;97376;-62
2021/09/16 06:12:16;;;;;;;;;45.00;37.00;;;;;25.37;50.03;98436.44;6258477;27;97176;-60
2021/09/16 06:15:19;;;;;;;;;45.00;38.00;;;;;25.54;49.71;98435.56;6256815;27;97731;-60
2021/09/16 06:18:23;;;;;;;;;43.80;36.00;;;;;25.67;49.06;98442.84;6241156;27;98569;-59
2021/09/16 06:21:26;;;;;;;;;49.00;38.40;;;;;25.85;48.46;98441.63;6259464;27;97816;-59
2021/09/16 06:24:30;;;;;;;;;43.00;36.00;;;;;25.96;48.10;98449.53;6229972;27;97386;-60
2021/09/16 06:27:35;;;;;;;;;45.00;38.00;;;;;26.08;47.93;98446.88;6254909;27;96644;-59
2021/09/16 06:30:39;;;;;;;;;43.80;36.00;;;;;26.18;48.21;98446.50;6258509;27;97551;-60
2021/09/16 06:33:42;;;;;;;;;46.80;38.00;;;;;26.29;48.16;98445.00;6258668;27;97090;-60
2021/09/16 06:36:46;;;;;;;;;38.40;33.40;;;;;26.38;47.61;98454.03;6259042;27;97433;-60
2021/09/16 06:39:49;;;;;;;;;37.80;33.00;;;;;26.52;47.65;98439.97;6240471;27;97254;-62
2021/09/16 06:42:54;;;;;;;;;34.60;30.00;;;;;26.62;46.39;98439.56;6251442;27;96622;-60
2021/09/16 06:45:57;;;;;;;;;26.00;24.40;;;;;26.68;45.76;98443.75;6259216;27;97068;-60
2021/09/16 06:49:00;;;;;;;;;31.40;29.60;;;;;26.71;45.86;98441.09;6241124;27;100334;-60
2021/09/16 06:52:04;;;;;;;;;30.40;28.40;;;;;26.71;45.94;98443.06;6258353;27;96887;-60
2021/09/16 06:55:08;;;;;;;;;30.00;28.00;;;;;26.72;45.76;98442.72;6253533;27;97829;-61
2021/09/16 06:58:13;;;;;;;;;32.60;29.60;;;;;26.68;46.04;98449.28;6259250;27;97470;-61
2021/09/16 07:01:17;;;;;;;;;30.00;27.50;;;;;26.77;46.84;98461.06;6258972;27;96541;-62
2021/09/16 07:04:20;;;;;;;;;35.00;30.60;;;;;26.88;46.88;98461.50;6245836;27;97355;-60
2021/09/16 07:07:24;;;;;;;;;29.75;28.25;;;;;26.90;46.79;98461.94;6254447;27;96538;-61
2021/09/16 07:10:27;;;;;;;;;28.25;27.00;;;;;26.99;46.62;98470.97;6249669;27;97395;-61
2021/09/16 07:13:32;;;;;;;;;30.00;27.40;;;;;27.05;45.45;98461.31;6237280;27;97365;-59
2021/09/16 07:16:36;;;;;;;;;26.00;23.80;;;;;27.14;44.83;98468.41;6256626;27;97179;-60
2021/09/16 07:19:39;;;;;;;;;35.00;29.40;;;;;27.19;45.03;98464.59;6257612;27;98072;-60
2021/09/16 07:22:43;;;;;;;;;30.40;27.00;;;;;27.22;45.06;98465.91;6254471;27;97460;-61
2021/09/16 07:25:46;;;;;;;;;30.25;28.25;;;;;27.24;45.23;98464.38;6257833;27;97632;-60
2021/09/16 07:28:51;;;;;;;;;31.20;28.00;;;;;27.34;44.77;98465.91;6256690;27;97185;-60
2021/09/16 07:31:55;;;;;;;;;31.40;27.40;;;;;27.40;44.47;98470.09;6256569;27;96884;-61
2021/09/16 07:35:12;;;;;;;;;28.40;28.00;;;;;27.53;44.58;98469.81;6263258;27;97453;-59
2021/09/16 07:38:15;;;;;;;;;31.00;28.80;;;;;27.65;44.19;98462.69;6233727;27;96575;-61
2021/09/16 07:41:19;;;;;;;;;28.80;26.20;;;;;27.60;43.63;98441.56;6248278;27;97998;-61
2021/09/16 07:44:24;;;;;;;;;30.00;26.50;;;;;27.97;43.16;98459.00;6262861;27;96693;-59
2021/09/16 07:47:28;;;;;;;;;25.60;24.00;;;;;27.96;43.26;98436.03;6260598;27;96718;-60
2021/09/16 07:50:32;;;;;;;;;28.00;27.00;;;;;28.29;42.51;98465.63;6255681;27;97714;-62
2021/09/16 07:53:36;;;;;;;;;29.40;29.00;;;;;28.34;42.73;98466.19;6261460;27;96891;-61
2021/09/16 07:56:40;;;;;;;;;28.00;26.00;;;;;28.35;42.80;98469.75;6245106;27;97501;-60
2021/09/16 07:59:45;;;;;;;;;33.00;29.80;;;;;28.46;42.74;98461.75;6250931;27;98403;-60
2021/09/16 08:02:50;;;;;;;;;28.50;25.00;;;;;28.52;42.19;98474.22;6255001;27;96661;-60
2021/09/16 08:05:54;;;;;;;;;28.60;27.20;;;;;28.58;42.47;98481.16;6248415;27;97071;-61
2021/09/16 08:08:58;;;;;;;;;31.00;28.00;;;;;28.65;43.34;98471.06;6263615;27;96467;-61
2021/09/16 08:12:01;;;;;;;;;32.40;28.40;;;;;28.76;43.08;98469.47;6263342;27;96860;-60
2021/09/16 08:15:07;;;;;;;;;28.33;24.33;;;;;28.92;42.67;98475.09;6263098;27;97573;-62
2021/09/16 08:18:11;;;;;;;;;27.75;27.00;;;;;29.01;42.04;98474.94;6263539;27;96746;-61
2021/09/16 08:21:15;;;;;;;;;29.00;26.00;;;;;29.18;41.73;98478.19;6259613;27;96819;-61
2021/09/16 08:24:18;;;;;;;;;28.40;26.00;;;;;29.32;41.55;98477.03;6247458;27;98123;-61
2021/09/16 08:27:22;;;;;;;;;27.00;25.00;;;;;29.43;41.76;98483.66;6227563;27;99521;-60
2021/09/16 08:30:27;;;;;;;;;26.00;24.40;;;;;29.61;41.20;98485.78;6261984;27;97242;-61
2021/09/16 08:33:31;;;;;;;;;26.20;24.60;;;;;29.73;40.28;98492.41;6262896;27;99033;-62
2021/09/16 08:36:34;;;;;;;;;25.25;24.25;;;;;29.82;40.34;98490.25;6258320;27;97594;-60
2021/09/16 08:39:37;;;;;;;;;27.00;25.00;;;;;29.82;40.49;98496.63;6262921;27;96439;-60
2021/09/16 08:42:44;;;;;;;;;29.50;27.75;;;;;29.83;40.25;98491.88;6254142;27;96896;-61
2021/09/16 08:45:49;;;;;;;;;29.00;28.00;;;;;29.77;40.63;98499.66;6262327;27;96963;-61
2021/09/16 08:48:52;;;;;;;;;26.00;25.00;;;;;29.78;40.63;98500.47;6259016;27;96752;-62
2021/09/16 08:51:56;;;;;;;;;26.40;25.00;;;;;29.76;40.72;98500.84;6249559;27;97036;-62
2021/09/16 08:55:01;;;;;;;;;26.50;24.75;;;;;29.78;40.23;98495.72;6245955;27;97479;-60
2021/09/16 08:58:09;;;;;;;;;26.00;23.75;;;;;29.80;40.06;98485.06;6244295;27;96364;-60
2021/09/16 09:01:15;;;;;;;;;24.75;23.75;;;;;29.89;40.36;98496.03;6260038;27;97910;-60
2021/09/16 09:04:20;;;;;;;;;25.50;24.00;;;;;29.89;39.92;98496.03;6260064;27;96789;-60
2021/09/16 09:07:23;;;;;;;;;27.80;22.20;;;;;29.91;40.00;98500.06;6243503;27;97413;-62
2021/09/16 09:10:39;;;;;;;;;21.00;20.00;;;;;29.92;39.99;98501.66;6262562;27;97050;-61
2021/09/16 09:13:44;;;;;;;;;20.75;19.25;;;;;29.86;40.43;98491.94;6244997;27;96585;-61
2021/09/16 09:16:50;;;;;;;;;24.00;22.00;;;;;29.51;39.31;98469.63;6262254;27;97497;-60
2021/09/16 09:19:58;;;;;;;;;21.75;21.00;;;;;29.69;39.64;98495.91;6236707;27;97342;-59
2021/09/16 09:23:21;;;;;;;;;23.60;21.00;;;;;29.65;39.92;98503.34;6258840;27;97455;-59
2021/09/16 09:26:26;;;;;;;;;22.40;21.40;;;;;29.54;41.05;98490.31;6250405;27;97470;-62
2021/09/16 09:29:30;;;;;;;;;22.80;22.40;;;;;29.50;41.70;98498.56;6244034;27;97511;-62
2021/09/16 09:32:57;;;;;;;;;23.20;22.20;;;;;29.42;41.43;98498.72;6261891;27;97282;-61
2021/09/16 09:36:10;;;;;;;;;24.00;21.60;;;;;29.34;41.86;98491.34;6247016;27;97478;-61
2021/09/16 09:39:15;;;;;;;;;21.00;21.00;;;;;29.24;41.56;98492.63;6219483;28;97568;-59
2021/09/16 09:42:21;;;;;;;;;22.40;21.40;;;;;29.23;41.95;98496.56;6224980;28;97332;-61
2021/09/16 09:45:25;;;;;;;;;25.00;23.00;;;;;29.22;41.65;98487.44;6210182;28;97817;-61
2021/09/16 09:48:30;;;;;;;;;22.80;20.00;;;;;29.26;41.63;98495.88;6238840;27;97648;-62
2021/09/16 09:51:39;;;;;;;;;21.40;20.00;;;;;29.37;41.88;98499.00;6224584;28;97207;-61
2021/09/16 09:54:43;;;;;;;;;24.00;23.00;;;;;29.49;41.58;98498.91;6235984;28;97462;-61
2021/09/16 09:57:48;;;;;;;;;25.40;23.00;;;;;29.67;41.71;98503.78;6224585;28;97498;-60
2021/09/16 10:00:51;;;;;;;;;22.60;22.60;;;;;29.79;41.16;98500.13;6233733;28;97534;-60
2021/09/16 10:03:56;;;;;;;;;23.25;22.25;;;;;29.95;40.77;98500.97;6245110;27;96629;-59
2021/09/16 10:07:01;;;;;;;;;26.50;24.75;;;;;30.05;39.80;98496.84;6214032;28;96817;-60
2021/09/16 10:10:08;;;;;;;;;29.60;25.60;;;;;30.21;39.81;98497.63;6230724;28;97300;-59
2021/09/16 10:13:17;;;;;;;;;27.00;25.00;;;;;30.35;39.63;98506.28;6251927;27;97623;-61
2021/09/16 10:16:21;;;;;;;;;27.00;25.00;;;;;30.58;39.01;98500.91;6245902;27;97353;-61
2021/09/16 10:19:26;;;;;;;;;30.00;27.00;;;;;30.68;39.01;98494.78;6240860;27;96579;-61
2021/09/16 10:22:29;;;;;;;;;24.00;23.00;;;;;30.87;38.96;98485.66;6246478;27;96665;-60
2021/09/16 10:25:44;;;;;;;;;26.00;25.50;;;;;31.20;38.30;98499.91;6212082;28;97648;-61
2021/09/16 10:28:47;;;;;;;;;31.00;26.00;;;;;31.38;38.36;98487.13;6227356;28;97457;-60
2021/09/16 10:31:53;;;;;;;;;27.80;25.20;;;;;31.47;37.99;98491.66;6231046;28;97367;-59
2021/09/16 10:34:58;;;;;;;;;31.20;28.20;;;;;31.48;37.98;98493.25;6253935;27;96982;-61
2021/09/16 10:38:26;;;;;;;;;31.00;28.40;;;;;31.56;38.28;98495.03;6257950;27;97256;-61
2021/09/16 10:41:30;;;;;;;;;25.20;24.20;;;;;31.52;37.93;98494.16;6246935;27;97496;-61
2021/09/16 10:44:34;;;;;;;;;27.20;25.60;;;;;31.40;37.67;98486.75;6260545;27;97124;-62
2021/09/16 10:47:37;;;;;;;;;26.00;25.20;;;;;31.39;37.85;98487.94;6260582;27;97425;-61
2021/09/16 10:50:45;;;;;;;;;30.60;28.00;;;;;31.33;38.36;98472.69;6259503;27;97221;-62
2021/09/16 10:53:49;;;;;;;;;24.40;24.40;;;;;31.39;38.35;98477.59;6260921;27;97983;-60
2021/09/16 10:56:59;;;;;;;;;29.60;27.60;;;;;31.32;38.19;98462.75;6260846;27;96658;-60
2021/09/16 11:00:18;;;;;;;;;23.80;23.00;;;;;31.21;37.77;98462.53;6284591;27;96226;-61
2021/09/16 11:03:59;;;;;;;;;28.00;25.40;;;;;31.06;37.96;98473.75;6286154;27;96686;-60
2021/09/16 11:07:49;;;;;;;;;25.00;23.00;;;;;31.03;38.56;98466.13;6285505;27;96108;-61
2021/09/16 11:10:59;;;;;;;;;27.80;24.20;;;;;31.14;37.91;98456.81;6277608;27;96701;-60
2021/09/16 11:14:02;;;;;;;;;26.00;24.00;;;;;31.27;38.38;98460.25;6283180;27;97670;-59
2021/09/16 11:17:07;;;;;;;;;25.60;24.00;;;;;31.29;38.14;98458.69;6280707;27;96834;-61
2021/09/16 11:20:22;;;;;;;;;24.75;23.25;;;;;31.40;38.34;98458.91;6285203;27;96294;-60
2021/09/16 11:23:42;;;;;;;;;27.00;23.25;;;;;31.36;38.14;98458.03;6284712;27;96109;-58
2021/09/16 11:27:00;;;;;;;;;24.00;23.80;;;;;31.34;37.83;98458.38;6285196;27;96256;-60
2021/09/16 11:30:19;;;;;;;;;28.67;24.33;;;;;31.44;37.54;98445.03;6285436;27;96734;-59
2021/09/16 11:33:35;;;;;;;;;26.40;25.00;;;;;31.57;37.54;98446.50;6285736;27;96219;-60
2021/09/16 11:37:22;;;;;;;;;26.60;25.60;;;;;31.73;37.81;98442.41;6286426;27;96670;-60
2021/09/16 11:40:39;;;;;;;;;27.80;26.80;;;;;31.77;37.54;98440.47;6261422;27;96549;-60
2021/09/16 11:44:08;;;;;;;;;26.60;25.60;;;;;31.78;36.97;98433.72;6285318;27;96248;-60
2021/09/16 11:47:25;;;;;;;;;29.40;26.00;;;;;31.73;36.88;98424.88;6285851;27;96362;-58
2021/09/16 11:50:42;;;;;;;;;25.00;23.40;;;;;31.90;37.24;98424.38;6284575;27;96842;-60
2021/09/16 11:53:56;;;;;;;;;25.00;23.60;;;;;32.19;36.69;98431.22;6284400;27;96145;-61
2021/09/16 11:57:11;;;;;;;;;23.25;23.00;;;;;32.27;35.96;98434.94;6285971;27;96356;-60
2021/09/16 12:00:32;;;;;;;;;23.40;21.80;;;;;32.35;36.46;98417.13;6285507;27;96552;-60
2021/09/16 12:03:50;;;;;;;;;24.50;22.50;;;;;32.35;35.63;98412.34;6285512;27;96458;-58
2021/09/16 12:07:06;;;;;;;;;26.00;24.00;;;;;32.45;35.36;98420.03;6286441;27;96085;-61
2021/09/16 12:10:23;;;;;;;;;20.00;20.00;;;;;32.64;34.87;98410.78;6284867;27;96159;-61
2021/09/16 12:13:40;;;;;;;;;23.00;22.00;;;;;32.92;35.38;98410.31;6286789;27;96951;-60
2021/09/16 12:17:05;;;;;;;;;22.80;22.40;;;;;33.09;34.82;98412.50;6284855;27;96287;-60
2021/09/16 12:20:22;;;;;;;;;24.00;22.40;;;;;33.09;34.38;98415.28;6285554;27;96130;-59
2021/09/16 12:23:38;;;;;;;;;22.00;20.00;;;;;32.99;34.87;98388.03;6285181;27;96483;-60
2021/09/16 12:26:55;;;;;;;;;22.75;21.75;;;;;33.05;34.43;98395.72;6285068;27;96283;-59
2021/09/16 12:30:19;;;;;;;;;23.60;21.60;;;;;33.00;35.07;98403.63;6259340;27;96288;-59
2021/09/16 12:33:38;;;;;;;;;24.00;22.60;;;;;32.76;35.13;98363.06;6286044;27;96205;-60
2021/09/16 12:36:54;;;;;;;;;25.00;23.00;;;;;32.95;35.14;98398.38;6284851;27;96892;-59
2021/09/16 12:40:24;;;;;;;;;22.00;20.20;;;;;32.89;34.94;98395.13;6259794;27;96349;-59
2021/09/16 12:43:40;;;;;;;;;25.60;22.60;;;;;32.78;35.54;98398.97;6284999;27;96225;-59
2021/09/16 12:46:59;;;;;;;;;22.00;21.00;;;;;32.61;35.27;98403.91;6284776;27;97016;-60
2021/09/16 12:50:15;;;;;;;;;22.60;20.00;;;;;32.56;35.47;98398.66;6285082;27;96246;-60
2021/09/16 12:53:30;;;;;;;;;24.00;22.60;;;;;32.46;36.08;98393.75;6285099;27;96884;-59
2021/09/16 12:56:46;;;;;;;;;23.00;21.40;;;;;32.33;36.09;98397.97;6284406;27;96662;-59
2021/09/16 13:00:05;;;;;;;;;23.00;22.00;;;;;32.34;36.13;98402.38;6285184;27;96326;-60
2021/09/16 13:03:20;;;;;;;;;22.00;20.50;;;;;32.39;35.67;98388.09;6285290;27;96420;-60
2021/09/16 13:06:35;;;;;;;;;18.40;17.40;;;;;32.37;36.24;98387.66;6282945;27;96309;-60
2021/09/16 13:20:21;;;;;;;;;23.00;19.50;;;;;32.49;35.97;98376.28;6284390;27;96464;-60
2021/09/16 13:23:36;;;;;;;;;20.20;19.00;;;;;32.45;35.51;98367.03;6285394;27;96808;-61
2021/09/16 13:26:51;;;;;;;;;21.00;20.00;;;;;32.45;35.50;98369.81;6284827;27;96361;-59
2021/09/16 13:30:09;;;;;;;;;22.75;20.75;;;;;32.19;35.63;98373.47;6285199;27;96162;-59
2021/09/16 13:33:25;;;;;;;;;20.00;19.00;;;;;32.01;36.39;98368.78;6284049;27;96657;-59
2021/09/16 13:36:40;;;;;;;;;21.00;20.00;;;;;31.82;36.83;98364.91;6284974;27;96227;-59
2021/09/16 13:39:55;;;;;;;;;21.25;21.00;;;;;31.68;36.83;98370.25;6285951;27;96773;-60
2021/09/16 13:43:10;;;;;;;;;20.00;19.00;;;;;31.50;36.73;98368.31;6285017;27;96098;-60
2021/09/16 13:46:25;;;;;;;;;19.00;18.50;;;;;31.44;37.81;98376.19;6285482;27;96584;-60
2021/09/16 13:49:40;;;;;;;;;21.60;20.00;;;;;31.40;37.19;98369.75;6284583;27;96624;-60
2021/09/16 13:52:55;;;;;;;;;20.40;19.40;;;;;31.32;37.17;98381.97;6285188;27;96509;-59
2021/09/16 13:56:10;;;;;;;;;24.00;22.00;;;;;31.21;37.47;98372.59;6285039;27;96754;-59
2021/09/16 13:59:25;;;;;;;;;22.00;20.20;;;;;31.12;37.47;98367.28;6284464;27;96429;-59
2021/09/16 14:02:40;;;;;;;;;23.00;20.25;;;;;31.02;37.67;98367.88;6283014;27;96528;-59
2021/09/16 14:05:57;;;;;;;;;20.00;19.00;;;;;30.98;37.98;98376.13;6275741;27;96396;-60
2021/09/16 14:09:13;;;;;;;;;23.20;22.00;;;;;30.92;38.55;98368.44;6268081;27;96770;-61
2021/09/16 14:12:28;;;;;;;;;22.00;21.00;;;;;30.80;39.27;98372.19;6259473;27;96730;-59
2021/09/16 14:15:45;;;;;;;;;20.60;20.60;;;;;30.70;39.67;98366.41;6278203;27;96593;-59
2021/09/16 14:19:00;;;;;;;;;21.80;20.80;;;;;30.61;39.92;98363.84;6284436;27;96778;-60
2021/09/16 14:22:15;;;;;;;;;18.20;18.00;;;;;30.53;40.28;98371.25;6283256;27;96425;-60
2021/09/16 14:25:30;;;;;;;;;20.00;18.40;;;;;30.40;40.04;98371.72;6282768;27;97074;-59
2021/09/16 14:28:45;;;;;;;;;23.00;21.00;;;;;30.26;40.14;98372.22;6284279;27;96269;-60
2021/09/16 14:32:00;;;;;;;;;24.50;23.00;;;;;30.18;40.72;98369.63;6284471;27;96459;-61
2021/09/16 14:35:14;;;;;;;;;22.00;21.60;;;;;30.09;40.85;98361.50;6284686;27;96298;-60
2021/09/16 14:38:29;;;;;;;;;25.00;24.25;;;;;30.01;41.13;98362.50;6280493;27;96928;-60
2021/09/16 14:41:44;;;;;;;;;19.80;19.60;;;;;29.97;41.67;98356.88;6283301;27;96582;-60
2021/09/16 14:44:59;;;;;;;;;21.20;21.20;;;;;29.93;41.46;98357.97;6284092;27;96365;-60
2021/09/16 14:48:14;;;;;;;;;23.00;22.00;;;;;29.86;41.61;98366.13;6284890;27;97061;-60
2021/09/16 14:51:33;;;;;;;;;23.00;21.75;;;;;29.77;41.86;98371.84;6281960;27;96354;-60